Time,TemperatureF,DewpointF,PressureIn,WindDirection,WindDirectionDegrees,WindSpeedMPH,WindSpeedGustMPH,Humidity,HourlyPrecipIn,Conditions,Clouds,dailyrainin,SoftwareType,DateUTC
2013-02-16 00:00:00,11.8,10.1,30.35,WNW,286,3.0,4.2,93,0.00,,,0.00,VWS V14.01,2013-02-16 06:00:00,
2013-02-16 00:10:00,12.5,11.1,30.35,West,269,0.0,5.2,94,0.00,,,0.00,VWS V14.01,2013-02-16 06:10:00,
2013-02-16 00:15:00,12.7,11.3,30.34,West,275,1.0,3.1,94,0.00,,,0.00,VWS V14.01,2013-02-16 06:15:00,
2013-02-16 00:25:00,12.9,11.2,30.34,West,267,0.0,1.0,93,0.00,,,0.00,VWS V14.01,2013-02-16 06:25:00,
2013-02-16 00:30:00,12.9,11.2,30.34,WNW,283,0.0,0.0,93,0.00,,,0.00,VWS V14.01,2013-02-16 06:30:00,
2013-02-16 00:35:00,13.0,11.3,30.34,West,279,0.0,4.2,93,0.00,,,0.00,VWS V14.01,2013-02-16 06:35:00,
2013-02-16 00:40:00,13.0,11.3,30.34,WNW,288,0.0,0.0,93,0.00,,,0.00,VWS V14.01,2013-02-16 06:40:00,
2013-02-16 00:45:00,13.0,11.3,30.33,WNW,298,0.0,0.0,93,0.00,,OVC012,0.00,VWS V14.01,2013-02-16 06:45:00,
2013-02-16 00:50:00,13.1,11.4,30.33,NW,315,0.0,4.2,93,0.00,,OVC012,0.00,VWS V14.01,2013-02-16 06:50:00,
2013-02-16 01:00:00,12.9,11.2,30.33,NW,308,1.0,5.2,93,0.00,,OVC012,0.00,VWS V14.01,2013-02-16 07:00:00,
2013-02-16 01:05:00,12.7,11.0,30.33,NW,318,3.0,5.2,93,0.00,,OVC012,0.00,VWS V14.01,2013-02-16 07:05:00,
2013-02-16 01:10:00,12.6,10.9,30.33,NW,310,0.0,6.3,93,0.00,,OVC012,0.00,VWS V14.01,2013-02-16 07:10:00,
2013-02-16 01:15:00,12.6,10.9,30.33,NW,309,0.0,2.1,93,0.00,,OVC012,0.00,VWS V14.01,2013-02-16 07:15:00,
2013-02-16 01:20:00,12.6,10.9,30.33,NW,309,0.0,0.0,93,0.00,,OVC012,0.00,VWS V14.01,2013-02-16 07:20:00,
2013-02-16 01:25:00,12.5,10.8,30.33,NW,309,0.0,0.0,93,0.00,,,0.00,VWS V14.01,2013-02-16 07:25:00,
2013-02-16 01:30:00,12.5,10.8,30.33,NW,312,0.0,2.1,93,0.00,,,0.00,VWS V14.01,2013-02-16 07:30:00,
2013-02-16 01:35:00,12.5,10.8,30.33,West,261,0.0,3.1,93,0.00,,,0.00,VWS V14.01,2013-02-16 07:35:00,
2013-02-16 01:40:00,12.4,10.8,30.33,NW,307,0.0,3.1,93,0.00,,,0.00,VWS V14.01,2013-02-16 07:40:00,
2013-02-16 01:45:00,12.3,10.6,30.33,NW,311,3.0,3.1,93,0.00,,,0.00,VWS V14.01,2013-02-16 07:45:00,
2013-02-16 01:50:00,12.1,10.4,30.32,NW,317,3.0,5.2,93,0.00,,,0.00,VWS V14.01,2013-02-16 07:50:00,
2013-02-16 01:55:00,11.9,10.2,30.32,NW,315,0.0,5.2,93,0.00,,,0.00,VWS V14.01,2013-02-16 07:55:00,
2013-02-16 02:00:00,11.9,10.2,30.32,NW,316,0.0,0.0,93,0.00,,,0.00,VWS V14.01,2013-02-16 08:00:00,
2013-02-16 02:05:00,11.7,10.1,30.33,NW,318,2.0,4.2,93,0.00,,,0.00,VWS V14.01,2013-02-16 08:05:00,
2013-02-16 02:10:00,11.5,9.9,30.32,NW,317,0.0,3.1,93,0.00,,,0.00,VWS V14.01,2013-02-16 08:10:00,
2013-02-16 02:15:00,11.4,9.8,30.32,NW,310,0.0,2.1,93,0.00,,,0.00,VWS V14.01,2013-02-16 08:15:00,
2013-02-16 02:25:00,11.3,9.9,30.32,NW,306,0.0,0.0,94,0.00,,,0.00,VWS V14.01,2013-02-16 08:25:00,
2013-02-16 02:30:00,11.2,9.6,30.32,NW,306,0.0,0.0,93,0.00,,,0.00,VWS V14.01,2013-02-16 08:30:00,
2013-02-16 02:35:00,11.2,9.6,30.31,NW,306,0.0,0.0,93,0.00,,,0.00,VWS V14.01,2013-02-16 08:35:00,
2013-02-16 02:40:00,11.1,9.5,30.31,NW,306,0.0,0.0,93,0.00,,,0.00,VWS V14.01,2013-02-16 08:40:00,
2013-02-16 02:45:00,11.1,9.5,30.31,NW,306,0.0,0.0,93,0.00,,,0.00,VWS V14.01,2013-02-16 08:45:00,
2013-02-16 02:50:00,11.0,9.4,30.31,NW,306,0.0,0.0,93,0.00,,,0.00,VWS V14.01,2013-02-16 08:50:00,
2013-02-16 03:00:00,10.9,9.3,30.30,NW,306,0.0,0.0,93,0.00,,,0.00,VWS V14.01,2013-02-16 09:00:00,
2013-02-16 03:10:00,10.9,9.3,30.30,NW,306,0.0,0.0,93,0.00,,,0.00,VWS V14.01,2013-02-16 09:10:00,
2013-02-16 03:15:00,10.9,9.3,30.30,NW,306,0.0,0.0,93,0.00,,,0.00,VWS V14.01,2013-02-16 09:15:00,
2013-02-16 03:20:00,10.9,9.3,30.30,NW,306,0.0,0.0,93,0.00,,,0.00,VWS V14.01,2013-02-16 09:20:00,
2013-02-16 03:30:00,10.8,9.2,30.30,NW,306,0.0,0.0,93,0.00,,,0.00,VWS V14.01,2013-02-16 09:30:00,
2013-02-16 03:35:00,10.8,9.2,30.29,NW,306,0.0,0.0,93,0.00,,,0.00,VWS V14.01,2013-02-16 09:35:00,
2013-02-16 03:45:00,10.8,9.2,30.29,NW,306,0.0,0.0,93,0.00,,,0.00,VWS V14.01,2013-02-16 09:45:00,
2013-02-16 03:55:00,10.7,8.8,30.28,NW,306,0.0,0.0,92,0.00,,,0.00,VWS V14.01,2013-02-16 09:55:00,
2013-02-16 04:00:00,10.8,8.9,30.28,NW,306,0.0,0.0,92,0.00,,,0.00,VWS V14.01,2013-02-16 10:00:00,
2013-02-16 04:10:00,11.0,9.1,30.28,NW,306,0.0,0.0,92,0.00,,,0.00,VWS V14.01,2013-02-16 10:10:00,
2013-02-16 04:15:00,10.9,9.0,30.27,NW,306,0.0,0.0,92,0.00,,,0.00,VWS V14.01,2013-02-16 10:15:00,
2013-02-16 04:25:00,10.5,8.9,30.27,SE,139,0.0,0.0,93,0.00,,,0.00,VWS V14.01,2013-02-16 10:25:00,
2013-02-16 04:30:00,10.2,8.6,30.27,SE,139,0.0,0.0,93,0.00,,,0.00,VWS V14.01,2013-02-16 10:30:00,
2013-02-16 04:35:00,10.1,8.5,30.27,SE,139,0.0,0.0,93,0.00,,,0.00,VWS V14.01,2013-02-16 10:35:00,
2013-02-16 04:40:00,9.9,8.3,30.27,SE,139,0.0,0.0,93,0.00,,,0.00,VWS V14.01,2013-02-16 10:40:00,
2013-02-16 04:45:00,9.5,7.9,30.26,SE,139,0.0,0.0,93,0.00,,,0.00,VWS V14.01,2013-02-16 10:45:00,
2013-02-16 04:55:00,9.7,8.3,30.26,SE,139,0.0,0.0,94,0.00,,,0.00,VWS V14.01,2013-02-16 10:55:00,
2013-02-16 05:00:00,9.2,7.6,30.26,SE,139,0.0,0.0,93,0.00,,,0.00,VWS V14.01,2013-02-16 11:00:00,
2013-02-16 05:10:00,9.3,7.7,30.26,SE,139,0.0,0.0,93,0.00,,,0.00,VWS V14.01,2013-02-16 11:10:00,
2013-02-16 05:15:00,9.2,7.6,30.25,SE,139,0.0,0.0,93,0.00,,,0.00,VWS V14.01,2013-02-16 11:15:00,
2013-02-16 05:20:00,9.2,7.6,30.25,SE,139,0.0,0.0,93,0.00,,,0.00,VWS V14.01,2013-02-16 11:20:00,
2013-02-16 05:25:00,9.2,7.6,30.25,SE,139,0.0,0.0,93,0.00,,,0.00,VWS V14.01,2013-02-16 11:25:00,
2013-02-16 05:30:00,9.0,7.4,30.25,SE,139,0.0,0.0,93,0.00,,,0.00,VWS V14.01,2013-02-16 11:30:00,
2013-02-16 05:40:00,8.9,7.3,30.26,SE,140,0.0,0.0,93,0.00,,,0.00,VWS V14.01,2013-02-16 11:40:00,
2013-02-16 05:50:00,8.9,7.5,30.26,SE,141,0.0,0.0,94,0.00,,BKN012,0.00,VWS V14.01,2013-02-16 11:50:00,
2013-02-16 06:00:00,9.2,7.8,30.26,SSW,193,1.0,3.1,94,0.00,,BKN012,0.00,VWS V14.01,2013-02-16 12:00:00,
2013-02-16 06:10:00,9.4,8.0,30.26,SSW,193,0.0,0.0,94,0.00,,SCT012,0.00,VWS V14.01,2013-02-16 12:10:00,
2013-02-16 06:20:00,9.5,8.1,30.26,SSW,193,0.0,0.0,94,0.00,,SCT012,0.00,VWS V14.01,2013-02-16 12:20:00,
2013-02-16 06:25:00,9.9,8.5,30.26,SSW,193,0.0,0.0,94,0.00,,SCT011,0.00,VWS V14.01,2013-02-16 12:25:00,
2013-02-16 06:30:00,10.3,8.9,30.26,SSW,193,0.0,0.0,94,0.00,,SCT011,0.00,VWS V14.01,2013-02-16 12:30:00,
2013-02-16 06:35:00,10.3,8.9,30.26,SSW,193,0.0,0.0,94,0.00,,SCT011,0.00,VWS V14.01,2013-02-16 12:35:00,
2013-02-16 06:40:00,10.3,8.7,30.25,SSW,193,0.0,0.0,93,0.00,,SCT011,0.00,VWS V14.01,2013-02-16 12:40:00,
2013-02-16 06:45:00,10.3,8.7,30.25,SE,144,0.0,0.0,93,0.00,,SCT011,0.00,VWS V14.01,2013-02-16 12:45:00,
2013-02-16 06:50:00,10.3,8.9,30.25,SE,144,0.0,0.0,94,0.00,,SCT011,0.00,VWS V14.01,2013-02-16 12:50:00,
2013-02-16 06:55:00,10.3,8.9,30.25,SE,144,0.0,0.0,94,0.00,,SCT011,0.00,VWS V14.01,2013-02-16 12:55:00,
2013-02-16 07:00:00,10.3,8.7,30.25,SE,144,0.0,0.0,93,0.00,,SCT011,0.00,VWS V14.01,2013-02-16 13:00:00,
2013-02-16 07:10:00,10.3,8.7,30.25,SE,144,0.0,0.0,93,0.00,,CLR,0.00,VWS V14.01,2013-02-16 13:10:00,
2013-02-16 07:15:00,10.0,8.4,30.25,SSW,197,0.0,3.1,93,0.00,,CLR,0.00,VWS V14.01,2013-02-16 13:15:00,
2013-02-16 07:20:00,9.6,8.0,30.25,SSW,199,0.0,4.2,93,0.00,,CLR,0.00,VWS V14.01,2013-02-16 13:20:00,
2013-02-16 07:25:00,9.5,7.9,30.25,South,173,1.0,1.0,93,0.00,,CLR,0.00,VWS V14.01,2013-02-16 13:25:00,
2013-02-16 07:30:00,9.4,7.8,30.25,South,172,0.0,2.1,93,0.00,,CLR,0.00,VWS V14.01,2013-02-16 13:30:00,
2013-02-16 07:35:00,9.4,7.8,30.25,South,172,0.0,0.0,93,0.00,,CLR,0.00,VWS V14.01,2013-02-16 13:35:00,
2013-02-16 07:40:00,9.2,7.6,30.24,South,172,1.0,2.1,93,0.00,,CLR,0.00,VWS V14.01,2013-02-16 13:40:00,
2013-02-16 07:45:00,9.1,7.5,30.24,ESE,123,0.0,2.1,93,0.00,,CLR,0.00,VWS V14.01,2013-02-16 13:45:00,
2013-02-16 07:50:00,8.7,6.8,30.24,ESE,121,4.0,5.2,92,0.00,,CLR,0.00,VWS V14.01,2013-02-16 13:50:00,
2013-02-16 07:55:00,8.6,7.0,30.24,ESE,115,3.0,5.2,93,0.00,,CLR,0.00,VWS V14.01,2013-02-16 13:55:00,
2013-02-16 08:00:00,8.6,7.0,30.24,ESE,112,5.0,5.2,93,0.00,,CLR,0.00,VWS V14.01,2013-02-16 14:00:00,
2013-02-16 08:05:00,8.6,7.0,30.24,ESE,115,3.0,5.2,93,0.00,,CLR,0.00,VWS V14.01,2013-02-16 14:05:00,
2013-02-16 08:10:00,8.5,6.6,30.24,ESE,113,2.0,4.2,92,0.00,,CLR,0.00,VWS V14.01,2013-02-16 14:10:00,
2013-02-16 08:20:00,8.4,6.8,30.23,ESE,111,3.0,5.2,93,0.00,,CLR,0.00,VWS V14.01,2013-02-16 14:20:00,
2013-02-16 08:25:00,8.3,6.4,30.24,ESE,112,3.0,4.2,92,0.00,,CLR,0.00,VWS V14.01,2013-02-16 14:25:00,
2013-02-16 08:30:00,8.1,6.2,30.24,ESE,112,2.0,4.2,92,0.00,,CLR,0.00,VWS V14.01,2013-02-16 14:30:00,
2013-02-16 08:35:00,8.0,6.1,30.23,ESE,112,4.0,4.2,92,0.00,,CLR,0.00,VWS V14.01,2013-02-16 14:35:00,
2013-02-16 08:40:00,7.4,5.3,30.23,ESE,112,3.0,4.2,91,0.00,,CLR,0.00,VWS V14.01,2013-02-16 14:40:00,
2013-02-16 08:45:00,7.0,4.9,30.23,ESE,109,5.0,5.2,91,0.00,,CLR,0.00,VWS V14.01,2013-02-16 14:45:00,
2013-02-16 08:50:00,6.6,4.5,30.23,ESE,110,3.0,5.2,91,0.00,,CLR,0.00,VWS V14.01,2013-02-16 14:50:00,
2013-02-16 08:55:00,6.7,4.6,30.23,ESE,111,3.0,4.2,91,0.00,,CLR,0.00,VWS V14.01,2013-02-16 14:55:00,
2013-02-16 09:00:00,7.1,5.2,30.23,ESE,111,4.0,4.2,92,0.00,,CLR,0.00,VWS V14.01,2013-02-16 15:00:00,
2013-02-16 09:10:00,6.8,4.5,30.23,SE,131,4.0,4.2,90,0.00,,,0.00,VWS V14.01,2013-02-16 15:10:00,
2013-02-16 09:15:00,6.5,4.4,30.23,SE,143,4.0,5.2,91,0.00,,,0.00,VWS V14.01,2013-02-16 15:15:00,
2013-02-16 09:20:00,6.7,4.6,30.23,SE,141,4.0,5.2,91,0.00,,,0.00,VWS V14.01,2013-02-16 15:20:00,
2013-02-16 09:25:00,6.9,4.8,30.23,SE,141,4.0,5.2,91,0.00,,,0.00,VWS V14.01,2013-02-16 15:25:00,
2013-02-16 09:30:00,7.1,5.0,30.23,SE,141,4.0,5.2,91,0.00,,,0.00,VWS V14.01,2013-02-16 15:30:00,
2013-02-16 09:35:00,7.6,5.7,30.23,SSE,152,4.0,5.2,92,0.00,,,0.00,VWS V14.01,2013-02-16 15:35:00,
2013-02-16 09:40:00,8.2,6.3,30.23,SSE,152,2.0,4.2,92,0.00,,,0.00,VWS V14.01,2013-02-16 15:40:00,
2013-02-16 09:45:00,8.0,5.9,30.23,SSE,153,4.0,5.2,91,0.00,,,0.00,VWS V14.01,2013-02-16 15:45:00,
2013-02-16 09:50:00,7.9,5.8,30.22,SE,146,5.0,5.2,91,0.00,,,0.00,VWS V14.01,2013-02-16 15:50:00,
2013-02-16 09:55:00,7.7,5.6,30.22,SE,146,3.0,5.2,91,0.00,,,0.00,VWS V14.01,2013-02-16 15:55:00,
2013-02-16 10:00:00,7.5,5.2,30.22,SE,138,4.0,5.2,90,0.00,,,0.00,VWS V14.01,2013-02-16 16:00:00,
2013-02-16 10:05:00,7.5,5.2,30.22,SE,138,3.0,5.2,90,0.00,,,0.00,VWS V14.01,2013-02-16 16:05:00,
2013-02-16 10:10:00,7.6,5.5,30.22,SE,138,2.0,4.2,91,0.00,,,0.00,VWS V14.01,2013-02-16 16:10:00,
2013-02-16 10:15:00,8.1,6.0,30.22,SE,134,4.0,5.2,91,0.00,,,0.00,VWS V14.01,2013-02-16 16:15:00,
2013-02-16 10:20:00,8.8,6.9,30.22,SE,135,5.0,6.3,92,0.00,,,0.00,VWS V14.01,2013-02-16 16:20:00,
2013-02-16 10:25:00,9.2,7.1,30.22,SE,130,6.0,6.3,91,0.00,,,0.00,VWS V14.01,2013-02-16 16:25:00,
2013-02-16 10:30:00,9.6,7.5,30.22,ESE,113,7.0,9.4,91,0.00,,,0.00,VWS V14.01,2013-02-16 16:30:00,
2013-02-16 10:35:00,9.8,7.7,30.22,ESE,118,5.0,9.4,91,0.00,,,0.00,VWS V14.01,2013-02-16 16:35:00,
2013-02-16 10:40:00,9.9,7.8,30.22,ESE,121,7.0,7.3,91,0.00,,,0.00,VWS V14.01,2013-02-16 16:40:00,
2013-02-16 10:45:00,10.3,8.2,30.22,ESE,116,7.0,9.4,91,0.00,,,0.00,VWS V14.01,2013-02-16 16:45:00,
2013-02-16 10:50:00,10.6,8.5,30.22,ESE,115,8.0,10.5,91,0.00,,,0.00,VWS V14.01,2013-02-16 16:50:00,
2013-02-16 10:55:00,10.8,8.7,30.21,ESE,115,9.0,10.5,91,0.00,,,0.00,VWS V14.01,2013-02-16 16:55:00,
2013-02-16 11:00:00,10.8,8.7,30.21,ESE,105,9.0,12.6,91,0.00,,,0.00,VWS V14.01,2013-02-16 17:00:00,
2013-02-16 11:10:00,11.0,8.9,30.21,ESE,117,7.0,12.6,91,0.00,,CLR,0.00,VWS V14.01,2013-02-16 17:10:00,
2013-02-16 11:15:00,11.0,8.9,30.21,ESE,106,8.0,10.5,91,0.00,,CLR,0.00,VWS V14.01,2013-02-16 17:15:00,
2013-02-16 11:20:00,11.0,8.6,30.20,ESE,107,7.0,10.5,90,0.00,,CLR,0.00,VWS V14.01,2013-02-16 17:20:00,
2013-02-16 11:25:00,11.0,8.6,30.20,East,100,9.0,11.5,90,0.00,,CLR,0.00,VWS V14.01,2013-02-16 17:25:00,
2013-02-16 11:30:00,11.2,9.1,30.20,ESE,108,11.0,12.6,91,0.00,,CLR,0.00,VWS V14.01,2013-02-16 17:30:00,
2013-02-16 11:35:00,11.3,8.9,30.21,ESE,109,10.0,13.6,90,0.00,,CLR,0.00,VWS V14.01,2013-02-16 17:35:00,
2013-02-16 11:40:00,11.4,9.0,30.21,ESE,121,9.0,12.6,90,0.00,,CLR,0.00,VWS V14.01,2013-02-16 17:40:00,
2013-02-16 11:45:00,11.5,9.1,30.21,ESE,118,9.0,12.6,90,0.00,,CLR,0.00,VWS V14.01,2013-02-16 17:45:00,
2013-02-16 11:50:00,11.6,9.2,30.20,ESE,109,11.0,11.5,90,0.00,,CLR,0.00,VWS V14.01,2013-02-16 17:50:00,
2013-02-16 11:55:00,11.6,9.2,30.20,ESE,113,9.0,12.6,90,0.00,,CLR,0.00,VWS V14.01,2013-02-16 17:55:00,
2013-02-16 12:00:00,11.6,9.2,30.21,ESE,109,10.0,12.6,90,0.00,,CLR,0.00,VWS V14.01,2013-02-16 18:00:00,
2013-02-16 12:10:00,11.6,9.2,30.20,ESE,113,8.0,12.6,90,0.00,,CLR,0.00,VWS V14.01,2013-02-16 18:10:00,
2013-02-16 12:15:00,11.7,9.3,30.20,ESE,111,12.0,12.6,90,0.00,,CLR,0.00,VWS V14.01,2013-02-16 18:15:00,
2013-02-16 12:20:00,11.7,9.3,30.20,ESE,108,10.0,14.7,90,0.00,,CLR,0.00,VWS V14.01,2013-02-16 18:20:00,
2013-02-16 12:25:00,11.8,9.4,30.20,ESE,117,12.0,12.6,90,0.00,,BKN085,0.00,VWS V14.01,2013-02-16 18:25:00,
2013-02-16 12:30:00,11.8,9.2,30.20,ESE,118,8.0,12.6,89,0.00,,BKN085,0.00,VWS V14.01,2013-02-16 18:30:00,
2013-02-16 12:40:00,11.9,9.3,30.20,ESE,118,10.0,12.6,89,0.00,,BKN085,0.00,VWS V14.01,2013-02-16 18:40:00,
2013-02-16 12:45:00,12.1,9.5,30.20,ESE,114,10.0,11.5,89,0.00,,OVC085,0.00,VWS V14.01,2013-02-16 18:45:00,
2013-02-16 12:50:00,12.1,9.5,30.19,ESE,116,11.0,13.6,89,0.00,,OVC085,0.00,VWS V14.01,2013-02-16 18:50:00,
2013-02-16 12:55:00,12.2,9.6,30.19,ESE,114,12.0,13.6,89,0.00,,OVC085,0.00,VWS V14.01,2013-02-16 18:55:00,
2013-02-16 13:00:00,12.2,9.6,30.19,ESE,110,12.0,14.7,89,0.00,,OVC085,0.00,VWS V14.01,2013-02-16 19:00:00,
2013-02-16 13:10:00,12.3,9.9,30.19,ESE,107,12.0,13.6,90,0.00,,OVC085,0.00,VWS V14.01,2013-02-16 19:10:00,
2013-02-16 13:15:00,12.4,10.0,30.19,ESE,122,10.0,13.6,90,0.00,,OVC085,0.00,VWS V14.01,2013-02-16 19:15:00,
2013-02-16 13:20:00,12.5,10.1,30.18,ESE,115,8.0,13.6,90,0.00,,OVC085,0.00,VWS V14.01,2013-02-16 19:20:00,
2013-02-16 13:25:00,12.5,10.1,30.18,ESE,111,12.0,12.6,90,0.00,,OVC085,0.00,VWS V14.01,2013-02-16 19:25:00,
2013-02-16 13:30:00,12.2,9.8,30.18,ESE,116,10.0,12.6,90,0.00,,OVC085,0.00,VWS V14.01,2013-02-16 19:30:00,
2013-02-16 13:35:00,12.1,9.7,30.18,ESE,114,10.0,12.6,90,0.00,,OVC085,0.00,VWS V14.01,2013-02-16 19:35:00,
2013-02-16 13:40:00,12.3,9.9,30.18,ESE,112,10.0,11.5,90,0.00,,OVC085,0.00,VWS V14.01,2013-02-16 19:40:00,
2013-02-16 13:45:00,12.6,10.2,30.18,ESE,113,8.0,12.6,90,0.00,,OVC085,0.00,VWS V14.01,2013-02-16 19:45:00,
2013-02-16 13:50:00,12.7,10.3,30.18,ESE,123,10.0,12.6,90,0.00,,OVC085,0.00,VWS V14.01,2013-02-16 19:50:00,
2013-02-16 13:55:00,12.7,10.1,30.17,ESE,119,11.0,12.6,89,0.00,,OVC085,0.00,VWS V14.01,2013-02-16 19:55:00,
2013-02-16 14:00:00,12.9,10.2,30.17,ESE,109,10.0,14.7,89,0.00,,OVC085,0.00,VWS V14.01,2013-02-16 20:00:00,
2013-02-16 14:10:00,13.1,10.7,30.17,ESE,102,7.0,13.6,90,0.00,,OVC085,0.00,VWS V14.01,2013-02-16 20:10:00,
2013-02-16 14:15:00,13.2,10.8,30.17,ESE,106,13.0,14.7,90,0.00,,OVC085,0.00,VWS V14.01,2013-02-16 20:15:00,
2013-02-16 14:20:00,13.2,10.8,30.17,ESE,107,12.0,15.7,90,0.00,,OVC085,0.00,VWS V14.01,2013-02-16 20:20:00,
2013-02-16 14:25:00,13.3,10.9,30.17,ESE,115,11.0,14.7,90,0.00,,BKN085,0.00,VWS V14.01,2013-02-16 20:25:00,
2013-02-16 14:30:00,13.4,11.0,30.17,ESE,108,13.0,15.7,90,0.00,,BKN085,0.00,VWS V14.01,2013-02-16 20:30:00,
2013-02-16 14:35:00,13.4,11.0,30.17,ESE,105,11.0,14.7,90,0.00,,BKN085,0.00,VWS V14.01,2013-02-16 20:35:00,
2013-02-16 14:40:00,13.7,11.3,30.17,East,99,13.0,14.7,90,0.00,,BKN085,0.00,VWS V14.01,2013-02-16 20:40:00,
2013-02-16 14:45:00,13.9,11.5,30.17,ESE,112,11.0,14.7,90,0.00,,SCT085,0.00,VWS V14.01,2013-02-16 20:45:00,
2013-02-16 14:50:00,14.1,11.7,30.17,ESE,115,10.0,12.6,90,0.00,,SCT085,0.00,VWS V14.01,2013-02-16 20:50:00,
2013-02-16 14:55:00,14.0,11.3,30.17,ESE,116,11.0,12.6,89,0.00,,SCT085,0.00,VWS V14.01,2013-02-16 20:55:00,
2013-02-16 15:00:00,14.1,11.4,30.17,ESE,105,9.0,13.6,89,0.00,,SCT085,0.00,VWS V14.01,2013-02-16 21:00:00,
2013-02-16 15:10:00,13.5,10.8,30.17,ESE,115,9.0,14.7,89,0.00,,CLR,0.00,VWS V14.01,2013-02-16 21:10:00,
2013-02-16 15:15:00,13.5,11.1,30.17,ESE,119,5.0,13.6,90,0.00,,CLR,0.00,VWS V14.01,2013-02-16 21:15:00,
2013-02-16 15:20:00,13.7,11.3,30.17,ESE,114,10.0,13.6,90,0.00,,CLR,0.00,VWS V14.01,2013-02-16 21:20:00,
2013-02-16 15:25:00,13.8,11.4,30.17,ESE,113,11.0,12.6,90,0.00,,CLR,0.00,VWS V14.01,2013-02-16 21:25:00,
2013-02-16 15:30:00,13.7,11.3,30.17,ESE,121,10.0,12.6,90,0.00,,CLR,0.00,VWS V14.01,2013-02-16 21:30:00,
2013-02-16 15:35:00,13.8,11.4,30.17,ESE,113,10.0,12.6,90,0.00,,CLR,0.00,VWS V14.01,2013-02-16 21:35:00,
2013-02-16 15:40:00,13.9,11.5,30.17,ESE,107,12.0,13.6,90,0.00,,CLR,0.00,VWS V14.01,2013-02-16 21:40:00,
2013-02-16 15:45:00,13.8,11.4,30.17,ESE,106,9.0,13.6,90,0.00,,BKN070,0.00,VWS V14.01,2013-02-16 21:45:00,
2013-02-16 15:50:00,13.9,11.5,30.17,ESE,111,12.0,12.6,90,0.00,,BKN070,0.00,VWS V14.01,2013-02-16 21:50:00,
2013-02-16 15:55:00,13.9,11.7,30.17,ESE,111,9.0,12.6,91,0.00,,BKN070,0.00,VWS V14.01,2013-02-16 21:55:00,
2013-02-16 16:00:00,14.0,11.8,30.17,ESE,113,11.0,13.6,91,0.00,,BKN070,0.00,VWS V14.01,2013-02-16 22:00:00,
2013-02-16 16:05:00,14.1,11.9,30.17,ESE,108,11.0,13.6,91,0.00,,BKN060,0.00,VWS V14.01,2013-02-16 22:05:00,
2013-02-16 16:10:00,14.0,11.8,30.17,ESE,106,12.0,13.6,91,0.00,,BKN060,0.00,VWS V14.01,2013-02-16 22:10:00,
2013-02-16 16:15:00,14.0,11.8,30.17,ESE,108,10.0,13.6,91,0.00,,BKN060,0.00,VWS V14.01,2013-02-16 22:15:00,
2013-02-16 16:20:00,13.9,11.7,30.17,ESE,103,13.0,15.7,91,0.00,,BKN060,0.00,VWS V14.01,2013-02-16 22:20:00,
2013-02-16 16:25:00,14.0,11.8,30.17,ESE,114,11.0,13.6,91,0.00,,SCT060,0.00,VWS V14.01,2013-02-16 22:25:00,
2013-02-16 16:30:00,13.9,11.7,30.17,ESE,107,10.0,13.6,91,0.00,,SCT060,0.00,VWS V14.01,2013-02-16 22:30:00,
2013-02-16 16:35:00,13.9,11.7,30.17,East,99,10.0,14.7,91,0.00,,SCT060,0.00,VWS V14.01,2013-02-16 22:35:00,
2013-02-16 16:40:00,13.9,11.7,30.17,ESE,107,9.0,13.6,91,0.00,,SCT060,0.00,VWS V14.01,2013-02-16 22:40:00,
2013-02-16 16:45:00,13.9,11.7,30.17,ESE,111,11.0,13.6,91,0.00,,CLR,0.00,VWS V14.01,2013-02-16 22:45:00,
2013-02-16 16:50:00,13.9,11.7,30.17,ESE,107,12.0,14.7,91,0.00,,CLR,0.00,VWS V14.01,2013-02-16 22:50:00,
2013-02-16 16:55:00,13.7,11.5,30.17,ESE,109,12.0,15.7,91,0.00,,CLR,0.00,VWS V14.01,2013-02-16 22:55:00,
2013-02-16 17:00:00,13.8,11.6,30.17,East,96,13.0,14.7,91,0.00,,CLR,0.00,VWS V14.01,2013-02-16 23:00:00,
2013-02-16 17:05:00,13.9,11.7,30.17,East,99,13.0,16.8,91,0.00,,BKN080,0.00,VWS V14.01,2013-02-16 23:05:00,
2013-02-16 17:10:00,13.9,11.7,30.17,East,96,10.0,14.7,91,0.00,,BKN080,0.00,VWS V14.01,2013-02-16 23:10:00,
2013-02-16 17:15:00,13.9,11.7,30.17,East,98,13.0,15.7,91,0.00,,BKN080,0.00,VWS V14.01,2013-02-16 23:15:00,
2013-02-16 17:20:00,13.9,11.7,30.16,East,83,11.0,14.7,91,0.00,,BKN080,0.00,VWS V14.01,2013-02-16 23:20:00,
2013-02-16 17:25:00,14.0,11.8,30.16,East,99,14.0,14.7,91,0.00,,OVC080,0.00,VWS V14.01,2013-02-16 23:25:00,
2013-02-16 17:30:00,14.0,11.8,30.16,ESE,103,12.0,14.7,91,0.00,,OVC080,0.00,VWS V14.01,2013-02-16 23:30:00,
2013-02-16 17:35:00,14.0,11.8,30.16,ESE,112,11.0,14.7,91,0.00,,OVC080,0.00,VWS V14.01,2013-02-16 23:35:00,
2013-02-16 17:45:00,14.0,11.8,30.16,ESE,107,13.0,15.7,91,0.00,,OVC080,0.00,VWS V14.01,2013-02-16 23:45:00,
2013-02-16 17:50:00,14.0,11.8,30.16,East,100,14.0,15.7,91,0.00,,OVC080,0.00,VWS V14.01,2013-02-16 23:50:00,
2013-02-16 17:55:00,14.1,11.9,30.16,East,96,15.0,15.7,91,0.00,,OVC080,0.00,VWS V14.01,2013-02-16 23:55:00,
2013-02-16 18:00:00,14.2,12.0,30.16,ESE,107,11.0,14.7,91,0.00,,OVC080,0.00,VWS V14.01,2013-02-17 00:00:00,
2013-02-16 18:05:00,14.2,12.0,30.16,East,100,11.0,16.8,91,0.00,,OVC080,0.00,VWS V14.01,2013-02-17 00:05:00,
2013-02-16 18:10:00,14.3,12.1,30.16,ESE,102,10.0,15.7,91,0.00,,OVC080,0.00,VWS V14.01,2013-02-17 00:10:00,
2013-02-16 18:15:00,14.3,12.1,30.16,East,101,10.0,15.7,91,0.00,,OVC080,0.00,VWS V14.01,2013-02-17 00:15:00,
2013-02-16 18:20:00,14.4,12.2,30.16,East,98,11.0,15.7,91,0.00,,OVC080,0.00,VWS V14.01,2013-02-17 00:20:00,
2013-02-16 18:25:00,14.4,12.2,30.16,ESE,105,12.0,14.7,91,0.00,,OVC080,0.00,VWS V14.01,2013-02-17 00:25:00,
2013-02-16 18:30:00,14.4,12.2,30.15,East,96,13.0,16.8,91,0.00,,OVC080,0.00,VWS V14.01,2013-02-17 00:30:00,
2013-02-16 18:35:00,14.4,12.2,30.15,East,101,13.0,15.7,91,0.00,,OVC080,0.00,VWS V14.01,2013-02-17 00:35:00,
2013-02-16 18:40:00,14.4,12.2,30.15,ESE,106,16.0,16.8,91,0.00,,OVC080,0.00,VWS V14.01,2013-02-17 00:40:00,
2013-02-16 18:45:00,14.4,12.2,30.15,ESE,109,12.0,16.8,91,0.00,,OVC080,0.00,VWS V14.01,2013-02-17 00:45:00,
2013-02-16 18:50:00,14.4,12.2,30.15,ESE,106,14.0,16.8,91,0.00,,OVC080,0.00,VWS V14.01,2013-02-17 00:50:00,
2013-02-16 18:55:00,14.4,12.0,30.15,East,98,15.0,17.8,90,0.00,,OVC080,0.00,VWS V14.01,2013-02-17 00:55:00,
2013-02-16 19:00:00,14.4,12.0,30.15,East,100,13.0,15.7,90,0.00,,OVC080,0.00,VWS V14.01,2013-02-17 01:00:00,
2013-02-16 19:05:00,14.4,12.0,30.15,East,94,14.0,15.7,90,0.00,,SCT070,0.00,VWS V14.01,2013-02-17 01:05:00,
2013-02-16 19:10:00,14.4,12.0,30.15,East,101,10.0,16.8,90,0.00,,SCT070,0.00,VWS V14.01,2013-02-17 01:10:00,
2013-02-16 19:15:00,14.3,11.9,30.15,ESE,105,10.0,15.7,90,0.00,,SCT070,0.00,VWS V14.01,2013-02-17 01:15:00,
2013-02-16 19:20:00,14.2,11.8,30.15,ESE,105,12.0,15.7,90,0.00,,SCT070,0.00,VWS V14.01,2013-02-17 01:20:00,
2013-02-16 19:25:00,14.1,11.7,30.15,East,101,13.0,15.7,90,0.00,,CLR,0.00,VWS V14.01,2013-02-17 01:25:00,
2013-02-16 19:30:00,14.1,11.7,30.14,East,94,11.0,15.7,90,0.00,,CLR,0.00,VWS V14.01,2013-02-17 01:30:00,
2013-02-16 19:35:00,14.1,11.7,30.14,ESE,103,10.0,15.7,90,0.00,,CLR,0.00,VWS V14.01,2013-02-17 01:35:00,
2013-02-16 19:40:00,14.0,11.6,30.14,East,92,13.0,16.8,90,0.00,,CLR,0.00,VWS V14.01,2013-02-17 01:40:00,
2013-02-16 19:45:00,13.8,11.4,30.14,ESE,103,11.0,16.8,90,0.00,,SCT060,0.00,VWS V14.01,2013-02-17 01:45:00,
2013-02-16 19:50:00,13.7,11.3,30.14,East,96,13.0,15.7,90,0.00,,SCT060,0.00,VWS V14.01,2013-02-17 01:50:00,
2013-02-16 19:55:00,13.4,11.0,30.14,ESE,102,11.0,15.7,90,0.00,,SCT060,0.00,VWS V14.01,2013-02-17 01:55:00,
2013-02-16 20:00:00,13.2,10.8,30.14,ESE,103,11.0,14.7,90,0.00,,SCT060,0.00,VWS V14.01,2013-02-17 02:00:00,
2013-02-16 20:05:00,13.0,10.6,30.14,ESE,103,12.0,14.7,90,0.00,,CLR,0.00,VWS V14.01,2013-02-17 02:05:00,
2013-02-16 20:10:00,12.7,10.1,30.13,East,101,11.0,14.7,89,0.00,,CLR,0.00,VWS V14.01,2013-02-17 02:10:00,
2013-02-16 20:15:00,12.3,9.9,30.13,ESE,103,11.0,14.7,90,0.00,,CLR,0.00,VWS V14.01,2013-02-17 02:15:00,
2013-02-16 20:20:00,12.2,9.8,30.13,ESE,106,11.0,14.7,90,0.00,,CLR,0.00,VWS V14.01,2013-02-17 02:20:00,
2013-02-16 20:25:00,12.0,9.4,30.13,East,101,10.0,13.6,89,0.00,,CLR,0.00,VWS V14.01,2013-02-17 02:25:00,
2013-02-16 20:30:00,11.8,9.2,30.13,ESE,103,10.0,11.5,89,0.00,,CLR,0.00,VWS V14.01,2013-02-17 02:30:00,
2013-02-16 20:35:00,11.5,9.1,30.13,East,99,10.0,11.5,90,0.00,,CLR,0.00,VWS V14.01,2013-02-17 02:35:00,
2013-02-16 20:40:00,11.4,9.0,30.13,East,98,10.0,11.5,90,0.00,,CLR,0.00,VWS V14.01,2013-02-17 02:40:00,
2013-02-16 20:45:00,11.2,8.8,30.13,ESE,104,10.0,11.5,90,0.00,,CLR,0.00,VWS V14.01,2013-02-17 02:45:00,
2013-02-16 20:50:00,11.0,8.6,30.14,East,99,7.0,10.5,90,0.00,,CLR,0.00,VWS V14.01,2013-02-17 02:50:00,
2013-02-16 20:55:00,10.8,8.4,30.14,ESE,107,7.0,9.4,90,0.00,,CLR,0.00,VWS V14.01,2013-02-17 02:55:00,
2013-02-16 21:00:00,10.5,8.1,30.14,East,101,8.0,8.4,90,0.00,,CLR,0.00,VWS V14.01,2013-02-17 03:00:00,
2013-02-16 21:05:00,10.3,7.9,30.14,ESE,103,7.0,9.4,90,0.00,,CLR,0.00,VWS V14.01,2013-02-17 03:05:00,
2013-02-16 21:10:00,10.1,7.7,30.14,East,101,7.0,8.4,90,0.00,,CLR,0.00,VWS V14.01,2013-02-17 03:10:00,
2013-02-16 21:15:00,9.9,7.5,30.13,ESE,108,5.0,8.4,90,0.00,,CLR,0.00,VWS V14.01,2013-02-17 03:15:00,
2013-02-16 21:20:00,9.8,7.4,30.14,ESE,113,7.0,8.4,90,0.00,,CLR,0.00,VWS V14.01,2013-02-17 03:20:00,
2013-02-16 21:25:00,9.7,7.3,30.13,East,99,9.0,10.5,90,0.00,,CLR,0.00,VWS V14.01,2013-02-17 03:25:00,
2013-02-16 21:30:00,9.8,7.4,30.13,ESE,107,7.0,9.4,90,0.00,,CLR,0.00,VWS V14.01,2013-02-17 03:30:00,
2013-02-16 21:35:00,9.6,7.2,30.13,ESE,108,8.0,9.4,90,0.00,,CLR,0.00,VWS V14.01,2013-02-17 03:35:00,
2013-02-16 21:40:00,9.8,7.7,30.13,ESE,117,8.0,11.5,91,0.00,,CLR,0.00,VWS V14.01,2013-02-17 03:40:00,
2013-02-16 21:45:00,10.3,8.2,30.13,ESE,108,8.0,10.5,91,0.00,,CLR,0.00,VWS V14.01,2013-02-17 03:45:00,
2013-02-16 21:50:00,10.5,8.4,30.13,ESE,112,8.0,10.5,91,0.00,,CLR,0.00,VWS V14.01,2013-02-17 03:50:00,
2013-02-16 21:55:00,10.6,8.2,30.12,ESE,122,9.0,10.5,90,0.00,,CLR,0.00,VWS V14.01,2013-02-17 03:55:00,
2013-02-16 22:00:00,10.8,8.4,30.12,ESE,113,8.0,11.5,90,0.00,,CLR,0.00,VWS V14.01,2013-02-17 04:00:00,
2013-02-16 22:05:00,10.5,7.9,30.12,ESE,111,8.0,11.5,89,0.00,,CLR,0.00,VWS V14.01,2013-02-17 04:05:00,
2013-02-16 22:10:00,10.3,7.9,30.12,ESE,103,9.0,11.5,90,0.00,,CLR,0.00,VWS V14.01,2013-02-17 04:10:00,
2013-02-16 22:15:00,10.3,7.9,30.12,ESE,112,5.0,11.5,90,0.00,,CLR,0.00,VWS V14.01,2013-02-17 04:15:00,
2013-02-16 22:20:00,10.4,8.0,30.13,ESE,111,4.0,9.4,90,0.00,,CLR,0.00,VWS V14.01,2013-02-17 04:20:00,
2013-02-16 22:25:00,10.5,8.1,30.13,ESE,109,7.0,9.4,90,0.00,,CLR,0.00,VWS V14.01,2013-02-17 04:25:00,
2013-02-16 22:30:00,10.4,8.0,30.12,ESE,117,7.0,9.4,90,0.00,,CLR,0.00,VWS V14.01,2013-02-17 04:30:00,
2013-02-16 22:35:00,10.0,7.6,30.12,ESE,113,5.0,8.4,90,0.00,,CLR,0.00,VWS V14.01,2013-02-17 04:35:00,
2013-02-16 22:40:00,9.7,7.3,30.12,ESE,112,3.0,5.2,90,0.00,,CLR,0.00,VWS V14.01,2013-02-17 04:40:00,
2013-02-16 22:45:00,9.4,7.0,30.12,ESE,102,4.0,7.3,90,0.00,,SCT031,0.00,VWS V14.01,2013-02-17 04:45:00,
2013-02-16 22:55:00,9.4,7.0,30.12,ESE,113,8.0,8.4,90,0.00,,SCT031,0.00,VWS V14.01,2013-02-17 04:55:00,
2013-02-16 23:00:00,9.0,6.6,30.12,ESE,119,7.0,8.4,90,0.00,,SCT031,0.00,VWS V14.01,2013-02-17 05:00:00,
2013-02-16 23:05:00,8.9,6.5,30.12,ESE,115,7.0,8.4,90,0.00,,BKN031,0.00,VWS V14.01,2013-02-17 05:05:00,
2013-02-16 23:10:00,8.9,6.8,30.12,ESE,120,7.0,8.4,91,0.00,,BKN031,0.00,VWS V14.01,2013-02-17 05:10:00,
2013-02-16 23:15:00,8.7,6.3,30.12,ESE,119,7.0,8.4,90,0.00,,BKN031,0.00,VWS V14.01,2013-02-17 05:15:00,
2013-02-16 23:20:00,8.5,6.2,30.11,ESE,117,7.0,9.4,90,0.00,,BKN031,0.00,VWS V14.01,2013-02-17 05:20:00,
2013-02-16 23:25:00,9.0,6.9,30.11,ESE,115,5.0,9.4,91,0.00,,OVC031,0.00,VWS V14.01,2013-02-17 05:25:00,
2013-02-16 23:30:00,10.0,8.1,30.12,ESE,112,5.0,8.4,92,0.00,,OVC031,0.00,VWS V14.01,2013-02-17 05:30:00,
2013-02-16 23:35:00,10.7,8.8,30.12,ESE,121,7.0,9.4,92,0.00,,OVC031,0.00,VWS V14.01,2013-02-17 05:35:00,
2013-02-16 23:40:00,10.8,8.9,30.11,ESE,115,7.0,9.4,92,0.00,,OVC031,0.00,VWS V14.01,2013-02-17 05:40:00,
2013-02-16 23:45:00,11.1,9.2,30.11,ESE,110,7.0,8.4,92,0.00,,OVC033,0.00,VWS V14.01,2013-02-17 05:45:00,
2013-02-16 23:50:00,11.4,9.5,30.11,ESE,107,8.0,10.5,92,0.00,,OVC033,0.00,VWS V14.01,2013-02-17 05:50:00,
2013-02-16 23:55:00,11.6,9.7,30.11,ESE,109,5.0,10.5,92,0.00,,OVC033,0.00,VWS V14.01,2013-02-17 05:55:00,